sensor_id;sensor_type;location;lat;lon;timestamp;P1;durP1;ratioP1;P2;durP2;ratioP2
4182;SDS011;2105;52.300;9.182;2023-07-31T00:01:43;5.43;;;2.43;;
4182;SDS011;2105;52.300;9.182;2023-07-31T00:05:13;5.30;;;2.90;;
4182;SDS011;2105;52.300;9.182;2023-07-31T00:07:06;5.20;;;3.00;;
4182;SDS011;2105;52.300;9.182;2023-07-31T00:09:33;4.27;;;3.00;;
4182;SDS011;2105;52.300;9.182;2023-07-31T00:12:03;5.30;;;2.50;;
4182;SDS011;2105;52.300;9.182;2023-07-31T00:14:31;4.27;;;2.80;;
4182;SDS011;2105;52.300;9.182;2023-07-31T00:16:58;3.70;;;2.43;;
4182;SDS011;2105;52.300;9.182;2023-07-31T00:19:27;5.20;;;2.70;;
4182;SDS011;2105;52.300;9.182;2023-07-31T00:21:57;5.87;;;2.47;;
4182;SDS011;2105;52.300;9.182;2023-07-31T00:24:26;3.57;;;2.80;;
4182;SDS011;2105;52.300;9.182;2023-07-31T00:26:54;3.83;;;2.77;;
4182;SDS011;2105;52.300;9.182;2023-07-31T00:29:23;4.10;;;2.80;;
4182;SDS011;2105;52.300;9.182;2023-07-31T00:31:50;4.10;;;2.80;;
4182;SDS011;2105;52.300;9.182;2023-07-31T00:34:17;11.40;;;2.87;;
4182;SDS011;2105;52.300;9.182;2023-07-31T00:36:44;4.20;;;2.63;;
4182;SDS011;2105;52.300;9.182;2023-07-31T00:39:11;3.43;;;2.30;;
4182;SDS011;2105;52.300;9.182;2023-07-31T00:41:43;4.87;;;2.20;;
4182;SDS011;2105;52.300;9.182;2023-07-31T00:44:10;4.00;;;2.50;;
4182;SDS011;2105;52.300;9.182;2023-07-31T00:46:37;4.93;;;2.63;;
4182;SDS011;2105;52.300;9.182;2023-07-31T00:49:05;8.37;;;2.90;;
4182;SDS011;2105;52.300;9.182;2023-07-31T00:51:34;2.90;;;2.70;;
4182;SDS011;2105;52.300;9.182;2023-07-31T00:54:01;10.70;;;2.80;;
4182;SDS011;2105;52.300;9.182;2023-07-31T00:56:29;3.93;;;2.47;;
4182;SDS011;2105;52.300;9.182;2023-07-31T00:58:59;3.23;;;2.30;;
4182;SDS011;2105;52.300;9.182;2023-07-31T01:01:29;4.20;;;2.80;;
4182;SDS011;2105;52.300;9.182;2023-07-31T01:03:56;6.03;;;2.47;;
4182;SDS011;2105;52.300;9.182;2023-07-31T01:06:24;5.43;;;3.47;;
4182;SDS011;2105;52.300;9.182;2023-07-31T01:08:59;4.67;;;2.40;;
4182;SDS011;2105;52.300;9.182;2023-07-31T01:11:30;4.00;;;2.30;;
4182;SDS011;2105;52.300;9.182;2023-07-31T01:13:59;2.60;;;2.20;;
4182;SDS011;2105;52.300;9.182;2023-07-31T01:16:27;2.60;;;2.40;;
4182;SDS011;2105;52.300;9.182;2023-07-31T01:18:57;2.30;;;2.10;;
4182;SDS011;2105;52.300;9.182;2023-07-31T01:21:41;4.67;;;2.17;;
4182;SDS011;2105;52.300;9.182;2023-07-31T01:24:22;7.27;;;2.30;;
4182;SDS011;2105;52.300;9.182;2023-07-31T01:26:56;7.13;;;2.20;;
4182;SDS011;2105;52.300;9.182;2023-07-31T01:29:30;3.17;;;2.10;;
4182;SDS011;2105;52.300;9.182;2023-07-31T01:32:02;3.07;;;2.30;;
4182;SDS011;2105;52.300;9.182;2023-07-31T01:34:31;3.80;;;2.47;;
4182;SDS011;2105;52.300;9.182;2023-07-31T01:37:01;3.40;;;2.00;;
4182;SDS011;2105;52.300;9.182;2023-07-31T01:39:30;2.23;;;2.03;;
4182;SDS011;2105;52.300;9.182;2023-07-31T01:41:59;3.00;;;2.27;;
4182;SDS011;2105;52.300;9.182;2023-07-31T01:44:26;2.57;;;2.30;;
4182;SDS011;2105;52.300;9.182;2023-07-31T01:46:53;3.40;;;2.70;;
4182;SDS011;2105;52.300;9.182;2023-07-31T01:49:20;2.60;;;2.40;;
4182;SDS011;2105;52.300;9.182;2023-07-31T01:51:48;2.80;;;2.20;;
4182;SDS011;2105;52.300;9.182;2023-07-31T01:54:17;3.67;;;2.50;;
4182;SDS011;2105;52.300;9.182;2023-07-31T01:56:47;2.63;;;2.30;;
4182;SDS011;2105;52.300;9.182;2023-07-31T01:59:17;6.20;;;2.53;;
4182;SDS011;2105;52.300;9.182;2023-07-31T02:02:01;2.30;;;2.10;;
4182;SDS011;2105;52.300;9.182;2023-07-31T02:04:37;3.97;;;2.60;;
4182;SDS011;2105;52.300;9.182;2023-07-31T02:07:36;2.40;;;2.20;;
4182;SDS011;2105;52.300;9.182;2023-07-31T02:09:55;2.70;;;2.50;;
4182;SDS011;2105;52.300;9.182;2023-07-31T02:12:42;2.90;;;2.60;;
4182;SDS011;2105;52.300;9.182;2023-07-31T02:15:22;3.33;;;2.63;;
4182;SDS011;2105;52.300;9.182;2023-07-31T02:17:51;2.60;;;2.40;;
4182;SDS011;2105;52.300;9.182;2023-07-31T02:20:57;5.33;;;2.70;;
4182;SDS011;2105;52.300;9.182;2023-07-31T02:23:34;3.30;;;2.60;;
4182;SDS011;2105;52.300;9.182;2023-07-31T02:26:01;3.00;;;2.70;;
4182;SDS011;2105;52.300;9.182;2023-07-31T02:28:29;2.90;;;2.70;;
4182;SDS011;2105;52.300;9.182;2023-07-31T02:33:41;3.03;;;2.77;;
4182;SDS011;2105;52.300;9.182;2023-07-31T02:36:16;2.80;;;2.60;;
4182;SDS011;2105;52.300;9.182;2023-07-31T02:38:45;2.87;;;2.57;;
4182;SDS011;2105;52.300;9.182;2023-07-31T02:41:12;4.33;;;2.67;;
4182;SDS011;2105;52.300;9.182;2023-07-31T02:43:40;2.93;;;2.63;;
4182;SDS011;2105;52.300;9.182;2023-07-31T02:46:07;5.07;;;2.77;;
4182;SDS011;2105;52.300;9.182;2023-07-31T02:48:42;4.53;;;3.10;;
4182;SDS011;2105;52.300;9.182;2023-07-31T02:51:10;3.50;;;3.20;;
4182;SDS011;2105;52.300;9.182;2023-07-31T02:53:37;3.50;;;3.00;;
4182;SDS011;2105;52.300;9.182;2023-07-31T02:56:04;3.80;;;2.57;;
4182;SDS011;2105;52.300;9.182;2023-07-31T02:58:33;3.67;;;3.27;;
4182;SDS011;2105;52.300;9.182;2023-07-31T03:01:00;4.27;;;3.00;;
4182;SDS011;2105;52.300;9.182;2023-07-31T03:03:27;4.40;;;2.80;;
4182;SDS011;2105;52.300;9.182;2023-07-31T03:05:56;5.57;;;3.17;;
4182;SDS011;2105;52.300;9.182;2023-07-31T03:08:24;3.90;;;2.87;;
4182;SDS011;2105;52.300;9.182;2023-07-31T03:10:51;3.17;;;2.87;;
4182;SDS011;2105;52.300;9.182;2023-07-31T03:13:18;7.07;;;3.70;;
4182;SDS011;2105;52.300;9.182;2023-07-31T03:15:47;5.80;;;3.07;;
4182;SDS011;2105;52.300;9.182;2023-07-31T03:18:17;3.53;;;3.07;;
4182;SDS011;2105;52.300;9.182;2023-07-31T03:20:47;4.90;;;2.50;;
4182;SDS011;2105;52.300;9.182;2023-07-31T03:23:16;3.13;;;2.83;;
4182;SDS011;2105;52.300;9.182;2023-07-31T03:25:56;3.27;;;2.97;;
4182;SDS011;2105;52.300;9.182;2023-07-31T03:28:23;2.67;;;2.40;;
4182;SDS011;2105;52.300;9.182;2023-07-31T03:30:50;2.80;;;2.60;;
4182;SDS011;2105;52.300;9.182;2023-07-31T03:33:18;4.30;;;2.60;;
4182;SDS011;2105;52.300;9.182;2023-07-31T03:35:45;2.63;;;2.43;;
4182;SDS011;2105;52.300;9.182;2023-07-31T03:38:12;2.80;;;2.60;;
4182;SDS011;2105;52.300;9.182;2023-07-31T03:40:41;4.03;;;2.80;;
4182;SDS011;2105;52.300;9.182;2023-07-31T03:43:08;4.13;;;2.90;;
4182;SDS011;2105;52.300;9.182;2023-07-31T03:45:35;3.47;;;2.70;;
4182;SDS011;2105;52.300;9.182;2023-07-31T03:48:03;2.83;;;2.63;;
4182;SDS011;2105;52.300;9.182;2023-07-31T03:50:30;2.57;;;2.37;;
4182;SDS011;2105;52.300;9.182;2023-07-31T03:52:57;2.50;;;2.30;;
4182;SDS011;2105;52.300;9.182;2023-07-31T03:55:25;3.10;;;2.10;;
4182;SDS011;2105;52.300;9.182;2023-07-31T03:57:53;5.10;;;1.90;;
4182;SDS011;2105;52.300;9.182;2023-07-31T04:00:20;2.50;;;2.00;;
4182;SDS011;2105;52.300;9.182;2023-07-31T04:02:48;2.40;;;1.87;;
4182;SDS011;2105;52.300;9.182;2023-07-31T04:05:18;4.23;;;1.50;;
4182;SDS011;2105;52.300;9.182;2023-07-31T04:07:45;2.47;;;1.53;;
4182;SDS011;2105;52.300;9.182;2023-07-31T04:10:12;2.83;;;1.70;;
4182;SDS011;2105;52.300;9.182;2023-07-31T04:12:39;2.20;;;1.60;;
4182;SDS011;2105;52.300;9.182;2023-07-31T04:15:08;2.10;;;1.70;;
4182;SDS011;2105;52.300;9.182;2023-07-31T04:17:36;2.30;;;2.07;;
4182;SDS011;2105;52.300;9.182;2023-07-31T04:20:03;1.60;;;1.50;;
4182;SDS011;2105;52.300;9.182;2023-07-31T04:22:30;3.40;;;1.70;;
4182;SDS011;2105;52.300;9.182;2023-07-31T04:24:57;2.63;;;2.10;;
4182;SDS011;2105;52.300;9.182;2023-07-31T04:27:24;2.13;;;2.00;;
4182;SDS011;2105;52.300;9.182;2023-07-31T04:29:52;3.00;;;2.10;;
4182;SDS011;2105;52.300;9.182;2023-07-31T04:32:20;2.30;;;2.10;;
4182;SDS011;2105;52.300;9.182;2023-07-31T04:34:47;4.40;;;2.33;;
4182;SDS011;2105;52.300;9.182;2023-07-31T04:37:14;3.10;;;2.80;;
4182;SDS011;2105;52.300;9.182;2023-07-31T04:39:41;3.33;;;2.77;;
4182;SDS011;2105;52.300;9.182;2023-07-31T04:42:08;7.97;;;3.83;;
4182;SDS011;2105;52.300;9.182;2023-07-31T04:44:35;6.23;;;4.50;;
4182;SDS011;2105;52.300;9.182;2023-07-31T04:47:03;9.93;;;4.97;;
4182;SDS011;2105;52.300;9.182;2023-07-31T04:49:31;8.27;;;5.03;;
4182;SDS011;2105;52.300;9.182;2023-07-31T04:51:58;9.90;;;6.40;;
4182;SDS011;2105;52.300;9.182;2023-07-31T04:54:25;11.43;;;7.90;;
4182;SDS011;2105;52.300;9.182;2023-07-31T04:56:53;13.87;;;7.67;;
4182;SDS011;2105;52.300;9.182;2023-07-31T04:59:20;18.50;;;8.00;;
4182;SDS011;2105;52.300;9.182;2023-07-31T05:01:47;10.13;;;8.17;;
4182;SDS011;2105;52.300;9.182;2023-07-31T05:04:14;12.87;;;9.20;;
4182;SDS011;2105;52.300;9.182;2023-07-31T05:06:43;15.00;;;9.87;;
4182;SDS011;2105;52.300;9.182;2023-07-31T05:09:10;18.07;;;10.27;;
4182;SDS011;2105;52.300;9.182;2023-07-31T05:11:38;18.27;;;10.30;;
4182;SDS011;2105;52.300;9.182;2023-07-31T05:14:07;20.10;;;11.23;;
4182;SDS011;2105;52.300;9.182;2023-07-31T05:16:35;23.27;;;11.57;;
4182;SDS011;2105;52.300;9.182;2023-07-31T05:19:02;14.57;;;10.70;;
4182;SDS011;2105;52.300;9.182;2023-07-31T05:21:29;21.53;;;11.77;;
4182;SDS011;2105;52.300;9.182;2023-07-31T05:23:57;18.93;;;10.80;;
4182;SDS011;2105;52.300;9.182;2023-07-31T05:26:24;20.73;;;11.23;;
4182;SDS011;2105;52.300;9.182;2023-07-31T05:28:51;20.93;;;11.27;;
4182;SDS011;2105;52.300;9.182;2023-07-31T05:31:18;20.90;;;11.10;;
4182;SDS011;2105;52.300;9.182;2023-07-31T05:33:47;20.07;;;11.93;;
4182;SDS011;2105;52.300;9.182;2023-07-31T05:36:15;17.53;;;11.73;;
4182;SDS011;2105;52.300;9.182;2023-07-31T05:38:43;20.10;;;12.80;;
4182;SDS011;2105;52.300;9.182;2023-07-31T05:41:12;18.77;;;11.53;;
4182;SDS011;2105;52.300;9.182;2023-07-31T05:43:39;20.60;;;12.03;;
4182;SDS011;2105;52.300;9.182;2023-07-31T05:46:06;20.00;;;10.57;;
4182;SDS011;2105;52.300;9.182;2023-07-31T05:48:34;19.83;;;11.60;;
4182;SDS011;2105;52.300;9.182;2023-07-31T05:51:01;23.83;;;11.50;;
4182;SDS011;2105;52.300;9.182;2023-07-31T05:53:28;17.80;;;11.63;;
4182;SDS011;2105;52.300;9.182;2023-07-31T05:55:55;20.93;;;11.70;;
4182;SDS011;2105;52.300;9.182;2023-07-31T05:58:24;21.70;;;12.63;;
4182;SDS011;2105;52.300;9.182;2023-07-31T06:00:51;22.40;;;12.03;;
4182;SDS011;2105;52.300;9.182;2023-07-31T06:03:18;19.90;;;11.20;;
4182;SDS011;2105;52.300;9.182;2023-07-31T06:05:45;22.40;;;12.30;;
4182;SDS011;2105;52.300;9.182;2023-07-31T06:08:12;23.63;;;11.60;;
4182;SDS011;2105;52.300;9.182;2023-07-31T06:10:39;20.47;;;11.17;;
4182;SDS011;2105;52.300;9.182;2023-07-31T06:13:06;23.07;;;12.07;;
4182;SDS011;2105;52.300;9.182;2023-07-31T06:15:35;20.47;;;11.80;;
4182;SDS011;2105;52.300;9.182;2023-07-31T06:18:02;22.50;;;11.40;;
4182;SDS011;2105;52.300;9.182;2023-07-31T06:20:32;25.43;;;12.13;;
4182;SDS011;2105;52.300;9.182;2023-07-31T06:22:59;19.80;;;11.40;;
4182;SDS011;2105;52.300;9.182;2023-07-31T06:25:27;24.50;;;12.03;;
4182;SDS011;2105;52.300;9.182;2023-07-31T06:27:54;20.57;;;11.40;;
4182;SDS011;2105;52.300;9.182;2023-07-31T06:30:21;28.87;;;12.00;;
4182;SDS011;2105;52.300;9.182;2023-07-31T06:32:50;27.03;;;12.03;;
4182;SDS011;2105;52.300;9.182;2023-07-31T06:35:17;27.50;;;12.30;;
4182;SDS011;2105;52.300;9.182;2023-07-31T06:37:44;27.47;;;11.33;;
4182;SDS011;2105;52.300;9.182;2023-07-31T06:40:11;23.13;;;12.10;;
4182;SDS011;2105;52.300;9.182;2023-07-31T06:42:38;24.93;;;11.33;;
4182;SDS011;2105;52.300;9.182;2023-07-31T06:45:05;22.63;;;11.53;;
4182;SDS011;2105;52.300;9.182;2023-07-31T06:47:33;25.83;;;12.57;;
4182;SDS011;2105;52.300;9.182;2023-07-31T06:50:01;26.87;;;10.87;;
4182;SDS011;2105;52.300;9.182;2023-07-31T06:52:28;19.63;;;11.33;;
4182;SDS011;2105;52.300;9.182;2023-07-31T06:55:02;21.10;;;10.97;;
4182;SDS011;2105;52.300;9.182;2023-07-31T06:57:29;23.60;;;11.67;;
4182;SDS011;2105;52.300;9.182;2023-07-31T06:59:56;23.97;;;10.80;;
4182;SDS011;2105;52.300;9.182;2023-07-31T07:02:23;24.87;;;11.37;;
4182;SDS011;2105;52.300;9.182;2023-07-31T07:04:50;20.17;;;11.07;;
4182;SDS011;2105;52.300;9.182;2023-07-31T07:07:19;18.60;;;11.60;;
4182;SDS011;2105;52.300;9.182;2023-07-31T07:09:46;20.50;;;9.80;;
4182;SDS011;2105;52.300;9.182;2023-07-31T07:12:13;17.37;;;10.50;;
4182;SDS011;2105;52.300;9.182;2023-07-31T07:14:40;24.50;;;11.20;;
4182;SDS011;2105;52.300;9.182;2023-07-31T07:17:07;21.23;;;11.17;;
4182;SDS011;2105;52.300;9.182;2023-07-31T07:19:34;21.50;;;9.90;;
4182;SDS011;2105;52.300;9.182;2023-07-31T07:22:02;28.43;;;11.17;;
4182;SDS011;2105;52.300;9.182;2023-07-31T07:24:30;23.40;;;11.37;;
4182;SDS011;2105;52.300;9.182;2023-07-31T07:26:57;19.60;;;10.87;;
4182;SDS011;2105;52.300;9.182;2023-07-31T07:29:24;17.80;;;9.10;;
4182;SDS011;2105;52.300;9.182;2023-07-31T07:31:51;17.27;;;9.60;;
4182;SDS011;2105;52.300;9.182;2023-07-31T07:34:18;15.67;;;8.43;;
4182;SDS011;2105;52.300;9.182;2023-07-31T07:36:46;14.53;;;8.70;;
4182;SDS011;2105;52.300;9.182;2023-07-31T07:39:13;17.80;;;9.13;;
4182;SDS011;2105;52.300;9.182;2023-07-31T07:41:41;18.57;;;8.27;;
4182;SDS011;2105;52.300;9.182;2023-07-31T07:44:08;19.27;;;8.30;;
4182;SDS011;2105;52.300;9.182;2023-07-31T07:46:35;16.30;;;8.70;;
4182;SDS011;2105;52.300;9.182;2023-07-31T07:49:02;13.63;;;8.20;;
4182;SDS011;2105;52.300;9.182;2023-07-31T07:51:30;17.20;;;7.93;;
4182;SDS011;2105;52.300;9.182;2023-07-31T07:53:57;17.67;;;7.50;;
4182;SDS011;2105;52.300;9.182;2023-07-31T07:56:25;20.33;;;9.00;;
4182;SDS011;2105;52.300;9.182;2023-07-31T07:58:54;15.57;;;8.07;;
4182;SDS011;2105;52.300;9.182;2023-07-31T08:01:21;16.43;;;9.00;;
4182;SDS011;2105;52.300;9.182;2023-07-31T08:03:49;21.10;;;9.00;;
4182;SDS011;2105;52.300;9.182;2023-07-31T08:06:16;22.47;;;8.80;;
4182;SDS011;2105;52.300;9.182;2023-07-31T08:08:44;15.93;;;8.20;;
4182;SDS011;2105;52.300;9.182;2023-07-31T08:11:11;15.40;;;7.87;;
4182;SDS011;2105;52.300;9.182;2023-07-31T08:13:38;15.60;;;8.17;;
4182;SDS011;2105;52.300;9.182;2023-07-31T08:16:07;20.53;;;9.03;;
4182;SDS011;2105;52.300;9.182;2023-07-31T08:18:35;14.67;;;7.90;;
4182;SDS011;2105;52.300;9.182;2023-07-31T08:21:02;15.33;;;8.40;;
4182;SDS011;2105;52.300;9.182;2023-07-31T08:23:29;12.33;;;7.50;;
4182;SDS011;2105;52.300;9.182;2023-07-31T08:25:56;14.30;;;7.90;;
4182;SDS011;2105;52.300;9.182;2023-07-31T08:28:23;13.77;;;8.47;;
4182;SDS011;2105;52.300;9.182;2023-07-31T08:30:50;13.63;;;7.50;;
4182;SDS011;2105;52.300;9.182;2023-07-31T08:33:18;13.57;;;7.93;;
4182;SDS011;2105;52.300;9.182;2023-07-31T08:35:46;20.10;;;8.60;;
4182;SDS011;2105;52.300;9.182;2023-07-31T08:38:13;14.83;;;7.70;;
4182;SDS011;2105;52.300;9.182;2023-07-31T08:40:40;18.57;;;8.90;;
4182;SDS011;2105;52.300;9.182;2023-07-31T08:43:08;14.10;;;8.23;;
4182;SDS011;2105;52.300;9.182;2023-07-31T08:45:35;14.07;;;8.10;;
4182;SDS011;2105;52.300;9.182;2023-07-31T08:48:03;16.03;;;8.30;;
4182;SDS011;2105;52.300;9.182;2023-07-31T08:50:31;15.80;;;9.00;;
4182;SDS011;2105;52.300;9.182;2023-07-31T08:52:59;12.77;;;7.97;;
4182;SDS011;2105;52.300;9.182;2023-07-31T08:55:26;12.70;;;8.07;;
4182;SDS011;2105;52.300;9.182;2023-07-31T08:57:54;16.37;;;8.33;;
4182;SDS011;2105;52.300;9.182;2023-07-31T09:00:22;13.50;;;6.90;;
4182;SDS011;2105;52.300;9.182;2023-07-31T09:02:52;10.70;;;7.30;;
4182;SDS011;2105;52.300;9.182;2023-07-31T09:05:20;9.13;;;6.60;;
4182;SDS011;2105;52.300;9.182;2023-07-31T09:07:49;10.73;;;6.10;;
4182;SDS011;2105;52.300;9.182;2023-07-31T09:10:17;8.70;;;6.00;;
4182;SDS011;2105;52.300;9.182;2023-07-31T09:12:44;9.50;;;5.10;;
4182;SDS011;2105;52.300;9.182;2023-07-31T09:15:11;5.93;;;4.50;;
4182;SDS011;2105;52.300;9.182;2023-07-31T09:17:39;6.80;;;4.17;;
4182;SDS011;2105;52.300;9.182;2023-07-31T09:20:13;6.93;;;3.80;;
4182;SDS011;2105;52.300;9.182;2023-07-31T09:22:40;4.93;;;4.10;;
4182;SDS011;2105;52.300;9.182;2023-07-31T09:25:16;5.50;;;3.70;;
4182;SDS011;2105;52.300;9.182;2023-07-31T09:27:46;4.90;;;4.17;;
4182;SDS011;2105;52.300;9.182;2023-07-31T09:30:14;6.20;;;4.47;;
4182;SDS011;2105;52.300;9.182;2023-07-31T09:32:41;9.60;;;4.80;;
4182;SDS011;2105;52.300;9.182;2023-07-31T09:35:18;5.23;;;3.93;;
4182;SDS011;2105;52.300;9.182;2023-07-31T09:37:50;5.03;;;4.37;;
4182;SDS011;2105;52.300;9.182;2023-07-31T09:40:32;6.80;;;4.90;;
4182;SDS011;2105;52.300;9.182;2023-07-31T09:43:00;6.70;;;5.30;;
4182;SDS011;2105;52.300;9.182;2023-07-31T09:45:27;6.27;;;5.37;;
4182;SDS011;2105;52.300;9.182;2023-07-31T09:47:55;6.70;;;4.87;;
4182;SDS011;2105;52.300;9.182;2023-07-31T09:50:23;5.77;;;4.67;;
4182;SDS011;2105;52.300;9.182;2023-07-31T09:52:50;4.70;;;4.20;;
4182;SDS011;2105;52.300;9.182;2023-07-31T09:55:18;5.63;;;4.40;;
4182;SDS011;2105;52.300;9.182;2023-07-31T09:57:47;4.83;;;4.30;;
4182;SDS011;2105;52.300;9.182;2023-07-31T10:00:15;5.17;;;4.67;;
4182;SDS011;2105;52.300;9.182;2023-07-31T10:02:44;8.50;;;4.50;;
4182;SDS011;2105;52.300;9.182;2023-07-31T10:05:12;4.97;;;4.00;;
4182;SDS011;2105;52.300;9.182;2023-07-31T10:07:39;5.00;;;4.50;;
4182;SDS011;2105;52.300;9.182;2023-07-31T10:10:08;5.37;;;4.53;;
4182;SDS011;2105;52.300;9.182;2023-07-31T10:12:36;4.60;;;4.20;;
4182;SDS011;2105;52.300;9.182;2023-07-31T10:15:05;4.03;;;3.73;;
4182;SDS011;2105;52.300;9.182;2023-07-31T10:17:33;4.43;;;4.03;;
4182;SDS011;2105;52.300;9.182;2023-07-31T10:20:02;5.87;;;3.83;;
4182;SDS011;2105;52.300;9.182;2023-07-31T10:22:30;4.60;;;4.10;;
4182;SDS011;2105;52.300;9.182;2023-07-31T10:24:58;5.10;;;4.60;;
4182;SDS011;2105;52.300;9.182;2023-07-31T10:27:26;5.20;;;4.70;;
4182;SDS011;2105;52.300;9.182;2023-07-31T10:29:54;7.67;;;4.77;;
4182;SDS011;2105;52.300;9.182;2023-07-31T10:32:23;6.90;;;4.80;;
4182;SDS011;2105;52.300;9.182;2023-07-31T10:34:50;6.33;;;5.03;;
4182;SDS011;2105;52.300;9.182;2023-07-31T10:37:22;7.03;;;5.33;;
4182;SDS011;2105;52.300;9.182;2023-07-31T10:39:55;5.77;;;4.70;;
4182;SDS011;2105;52.300;9.182;2023-07-31T10:42:27;5.70;;;5.00;;
4182;SDS011;2105;52.300;9.182;2023-07-31T10:44:56;5.50;;;5.00;;
4182;SDS011;2105;52.300;9.182;2023-07-31T10:47:24;5.23;;;4.73;;
4182;SDS011;2105;52.300;9.182;2023-07-31T10:49:51;5.87;;;5.37;;
4182;SDS011;2105;52.300;9.182;2023-07-31T10:52:19;6.07;;;5.47;;
4182;SDS011;2105;52.300;9.182;2023-07-31T10:54:48;5.30;;;4.90;;
4182;SDS011;2105;52.300;9.182;2023-07-31T10:57:19;5.40;;;4.90;;
4182;SDS011;2105;52.300;9.182;2023-07-31T10:59:47;5.07;;;4.67;;
4182;SDS011;2105;52.300;9.182;2023-07-31T11:02:25;5.40;;;4.47;;
4182;SDS011;2105;52.300;9.182;2023-07-31T11:05:07;4.90;;;4.30;;
4182;SDS011;2105;52.300;9.182;2023-07-31T11:07:47;3.70;;;3.40;;
4182;SDS011;2105;52.300;9.182;2023-07-31T11:10:16;9.00;;;3.33;;
4182;SDS011;2105;52.300;9.182;2023-07-31T11:12:43;5.70;;;3.40;;
4182;SDS011;2105;52.300;9.182;2023-07-31T11:15:11;3.30;;;3.00;;
4182;SDS011;2105;52.300;9.182;2023-07-31T11:17:40;5.13;;;3.40;;
4182;SDS011;2105;52.300;9.182;2023-07-31T11:20:07;3.60;;;2.80;;
4182;SDS011;2105;52.300;9.182;2023-07-31T11:22:35;5.53;;;3.17;;
4182;SDS011;2105;52.300;9.182;2023-07-31T11:25:02;3.77;;;3.30;;
4182;SDS011;2105;52.300;9.182;2023-07-31T11:27:30;3.13;;;2.40;;
4182;SDS011;2105;52.300;9.182;2023-07-31T11:30:00;3.20;;;2.90;;
4182;SDS011;2105;52.300;9.182;2023-07-31T11:32:27;3.23;;;2.50;;
4182;SDS011;2105;52.300;9.182;2023-07-31T11:34:56;6.73;;;3.10;;
4182;SDS011;2105;52.300;9.182;2023-07-31T11:37:23;2.53;;;2.10;;
4182;SDS011;2105;52.300;9.182;2023-07-31T11:39:59;2.60;;;2.40;;
4182;SDS011;2105;52.300;9.182;2023-07-31T11:42:27;4.40;;;2.60;;
4182;SDS011;2105;52.300;9.182;2023-07-31T11:44:54;3.57;;;2.43;;
4182;SDS011;2105;52.300;9.182;2023-07-31T11:47:21;3.57;;;2.33;;
4182;SDS011;2105;52.300;9.182;2023-07-31T11:49:48;4.23;;;2.10;;
4182;SDS011;2105;52.300;9.182;2023-07-31T11:52:17;2.83;;;2.30;;
4182;SDS011;2105;52.300;9.182;2023-07-31T11:54:45;7.20;;;2.70;;
4182;SDS011;2105;52.300;9.182;2023-07-31T11:57:13;2.53;;;2.33;;
4182;SDS011;2105;52.300;9.182;2023-07-31T11:59:40;4.53;;;2.90;;
4182;SDS011;2105;52.300;9.182;2023-07-31T12:02:08;3.37;;;3.07;;
4182;SDS011;2105;52.300;9.182;2023-07-31T12:04:35;3.60;;;2.73;;
4182;SDS011;2105;52.300;9.182;2023-07-31T12:07:03;3.70;;;3.17;;
4182;SDS011;2105;52.300;9.182;2023-07-31T12:09:32;2.77;;;2.57;;
4182;SDS011;2105;52.300;9.182;2023-07-31T12:11:59;2.43;;;2.23;;
4182;SDS011;2105;52.300;9.182;2023-07-31T12:14:27;3.00;;;2.60;;
4182;SDS011;2105;52.300;9.182;2023-07-31T12:16:55;2.40;;;2.20;;
4182;SDS011;2105;52.300;9.182;2023-07-31T12:19:22;2.30;;;2.10;;
4182;SDS011;2105;52.300;9.182;2023-07-31T12:21:51;2.40;;;2.20;;
4182;SDS011;2105;52.300;9.182;2023-07-31T12:24:18;2.67;;;2.47;;
4182;SDS011;2105;52.300;9.182;2023-07-31T12:26:47;3.70;;;2.43;;
4182;SDS011;2105;52.300;9.182;2023-07-31T12:29:15;3.03;;;2.83;;
4182;SDS011;2105;52.300;9.182;2023-07-31T12:31:42;2.93;;;2.73;;
4182;SDS011;2105;52.300;9.182;2023-07-31T12:34:15;4.20;;;3.30;;
4182;SDS011;2105;52.300;9.182;2023-07-31T12:36:43;3.67;;;3.37;;
4182;SDS011;2105;52.300;9.182;2023-07-31T12:39:11;3.63;;;3.10;;
4182;SDS011;2105;52.300;9.182;2023-07-31T12:41:38;4.00;;;3.17;;
4182;SDS011;2105;52.300;9.182;2023-07-31T12:44:07;3.60;;;3.40;;
4182;SDS011;2105;52.300;9.182;2023-07-31T12:46:35;3.97;;;3.67;;
4182;SDS011;2105;52.300;9.182;2023-07-31T12:49:02;4.20;;;3.60;;
4182;SDS011;2105;52.300;9.182;2023-07-31T12:51:29;4.17;;;3.87;;
4182;SDS011;2105;52.300;9.182;2023-07-31T12:53:56;4.07;;;3.77;;
4182;SDS011;2105;52.300;9.182;2023-07-31T12:56:23;4.67;;;4.00;;
4182;SDS011;2105;52.300;9.182;2023-07-31T12:58:51;4.60;;;4.20;;
4182;SDS011;2105;52.300;9.182;2023-07-31T13:01:19;4.60;;;4.30;;
4182;SDS011;2105;52.300;9.182;2023-07-31T13:03:47;4.30;;;4.00;;
4182;SDS011;2105;52.300;9.182;2023-07-31T13:06:14;4.40;;;4.10;;
4182;SDS011;2105;52.300;9.182;2023-07-31T13:08:41;4.80;;;4.40;;
4182;SDS011;2105;52.300;9.182;2023-07-31T13:11:08;4.80;;;4.40;;
4182;SDS011;2105;52.300;9.182;2023-07-31T13:13:35;4.33;;;3.90;;
4182;SDS011;2105;52.300;9.182;2023-07-31T13:16:03;4.40;;;4.10;;
4182;SDS011;2105;52.300;9.182;2023-07-31T13:18:33;4.47;;;4.07;;
4182;SDS011;2105;52.300;9.182;2023-07-31T13:21:00;4.80;;;4.40;;
4182;SDS011;2105;52.300;9.182;2023-07-31T13:23:27;4.90;;;4.50;;
4182;SDS011;2105;52.300;9.182;2023-07-31T13:25:54;4.43;;;4.03;;
4182;SDS011;2105;52.300;9.182;2023-07-31T13:28:21;4.50;;;4.10;;
4182;SDS011;2105;52.300;9.182;2023-07-31T13:30:48;4.00;;;3.80;;
4182;SDS011;2105;52.300;9.182;2023-07-31T13:33:15;3.97;;;3.67;;
4182;SDS011;2105;52.300;9.182;2023-07-31T13:35:44;4.70;;;4.20;;
4182;SDS011;2105;52.300;9.182;2023-07-31T13:38:11;4.27;;;3.97;;
4182;SDS011;2105;52.300;9.182;2023-07-31T13:40:38;9.57;;;4.60;;
4182;SDS011;2105;52.300;9.182;2023-07-31T13:43:05;3.87;;;3.67;;
4182;SDS011;2105;52.300;9.182;2023-07-31T13:45:32;3.63;;;3.43;;
4182;SDS011;2105;52.300;9.182;2023-07-31T13:48:00;4.20;;;3.90;;
4182;SDS011;2105;52.300;9.182;2023-07-31T13:50:27;4.10;;;3.80;;
4182;SDS011;2105;52.300;9.182;2023-07-31T13:52:55;4.00;;;3.70;;
4182;SDS011;2105;52.300;9.182;2023-07-31T13:55:23;4.40;;;4.10;;
4182;SDS011;2105;52.300;9.182;2023-07-31T13:57:50;5.13;;;4.60;;
4182;SDS011;2105;52.300;9.182;2023-07-31T14:00:18;4.97;;;4.57;;
4182;SDS011;2105;52.300;9.182;2023-07-31T14:02:45;5.43;;;4.93;;
4182;SDS011;2105;52.300;9.182;2023-07-31T14:05:13;6.60;;;5.40;;
4182;SDS011;2105;52.300;9.182;2023-07-31T14:07:40;6.00;;;5.50;;
4182;SDS011;2105;52.300;9.182;2023-07-31T14:10:09;6.53;;;5.97;;
4182;SDS011;2105;52.300;9.182;2023-07-31T14:12:36;7.00;;;6.20;;
4182;SDS011;2105;52.300;9.182;2023-07-31T14:15:03;6.60;;;5.87;;
4182;SDS011;2105;52.300;9.182;2023-07-31T14:17:31;6.70;;;6.00;;
4182;SDS011;2105;52.300;9.182;2023-07-31T14:19:58;7.20;;;6.50;;
4182;SDS011;2105;52.300;9.182;2023-07-31T14:22:28;8.30;;;6.60;;
4182;SDS011;2105;52.300;9.182;2023-07-31T14:24:55;8.03;;;6.50;;
4182;SDS011;2105;52.300;9.182;2023-07-31T14:27:24;7.47;;;6.87;;
4182;SDS011;2105;52.300;9.182;2023-07-31T14:29:51;8.10;;;6.90;;
4182;SDS011;2105;52.300;9.182;2023-07-31T14:32:18;9.57;;;7.57;;
4182;SDS011;2105;52.300;9.182;2023-07-31T14:34:46;7.17;;;6.50;;
4182;SDS011;2105;52.300;9.182;2023-07-31T14:37:13;7.50;;;6.77;;
4182;SDS011;2105;52.300;9.182;2023-07-31T14:39:40;8.57;;;7.97;;
4182;SDS011;2105;52.300;9.182;2023-07-31T14:42:08;8.83;;;8.10;;
4182;SDS011;2105;52.300;9.182;2023-07-31T14:44:36;9.40;;;8.50;;
4182;SDS011;2105;52.300;9.182;2023-07-31T14:47:04;8.47;;;7.77;;
4182;SDS011;2105;52.300;9.182;2023-07-31T14:49:31;9.10;;;8.37;;
4182;SDS011;2105;52.300;9.182;2023-07-31T14:51:58;9.20;;;8.40;;
4182;SDS011;2105;52.300;9.182;2023-07-31T14:54:25;9.33;;;8.57;;
4182;SDS011;2105;52.300;9.182;2023-07-31T14:56:52;9.37;;;8.60;;
4182;SDS011;2105;52.300;9.182;2023-07-31T14:59:19;10.47;;;9.50;;
4182;SDS011;2105;52.300;9.182;2023-07-31T15:01:48;9.70;;;8.87;;
4182;SDS011;2105;52.300;9.182;2023-07-31T15:04:15;7.87;;;7.17;;
4182;SDS011;2105;52.300;9.182;2023-07-31T15:06:42;6.90;;;6.20;;
4182;SDS011;2105;52.300;9.182;2023-07-31T15:09:09;6.63;;;6.13;;
4182;SDS011;2105;52.300;9.182;2023-07-31T15:11:36;8.03;;;7.33;;
4182;SDS011;2105;52.300;9.182;2023-07-31T15:14:03;7.90;;;7.10;;
4182;SDS011;2105;52.300;9.182;2023-07-31T15:16:30;8.63;;;7.20;;
4182;SDS011;2105;52.300;9.182;2023-07-31T15:18:59;8.03;;;7.33;;
4182;SDS011;2105;52.300;9.182;2023-07-31T15:21:26;8.30;;;7.60;;